Time;durP1;ratioP1;P1;durP2;ratioP2;P2;SDS_P1;SDS_P2;PMS_P1;PMS_P2;Temp;Humidity;BMP_temperature;BMP_pressure;BME280_temperature;BME280_humidity;BME280_pressure;Samples;Min_cycle;Max_cycle;Signal;HPM_P1;HPM_P2
2023/02/12 00:01:25;;;;;;;27.60;19.20;;;;;;;5.50;77.58;101789.25;110180;1263;21968;-78
2023/02/12 00:03:57;;;;;;;24.70;20.80;;;;;;;5.46;77.64;101790.44;110067;1263;23039;-78
2023/02/12 00:06:34;;;;;;;32.70;22.70;;;;;;;5.45;77.69;101796.99;110689;1261;22299;-78
2023/02/12 00:09:09;;;;;;;36.50;23.40;;;;;;;5.45;77.68;101804.75;110594;1263;21983;-79
2023/02/12 00:11:45;;;;;;;33.20;21.90;;;;;;;5.44;77.70;101797.85;110455;1263;23100;-79
2023/02/12 00:14:20;;;;;;;32.80;22.60;;;;;;;5.44;77.70;101795.96;110850;1256;21972;-77
2023/02/12 00:17:01;;;;;;;31.40;24.00;;;;;;;5.48;77.65;101804.94;110830;1257;21971;-78
2023/02/12 00:19:35;;;;;;;32.40;23.60;;;;;;;5.50;77.59;101812.23;110924;1256;24383;-77
2023/02/12 00:22:12;;;;;;;34.60;24.40;;;;;;;5.53;77.64;101820.17;111255;1250;21958;-77
2023/02/12 00:24:46;;;;;;;34.80;24.10;;;;;;;5.52;77.54;101823.29;110823;1257;23271;-76
2023/02/12 00:27:30;;;;;;;33.00;25.50;;;;;;;5.50;77.48;101825.00;110951;1257;23453;-77
2023/02/12 00:30:05;;;;;;;37.60;25.70;;;;;;;5.48;77.42;101823.42;110395;1263;24361;-76
2023/02/12 00:32:36;;;;;;;40.60;26.20;;;;;;;5.46;77.48;101830.14;110155;1263;22084;-77
2023/02/12 00:35:08;;;;;;;31.50;23.30;;;;;;;5.43;77.48;101836.00;110234;1263;21980;-76
2023/02/12 00:37:41;;;;;;;32.50;23.10;;;;;;;5.44;77.40;101848.95;110574;1263;22697;-76
2023/02/12 00:40:19;;;;;;;31.80;22.80;;;;;;;5.39;77.31;101850.13;109728;1267;22766;-77
2023/02/12 00:42:52;;;;;;;28.50;20.40;;;;;;;5.36;77.40;101848.36;110025;1268;22763;-78
2023/02/12 00:45:25;;;;;;;32.90;22.10;;;;;;;5.35;77.43;101854.73;109418;1271;22744;-77
2023/02/12 00:48:04;;;;;;;31.50;20.50;;;;;;;5.33;77.49;101866.13;109353;1270;24307;-77
2023/02/12 00:50:43;;;;;;;27.80;21.00;;;;;;;5.33;77.45;101869.59;109509;1267;21989;-77
2023/02/12 00:53:18;;;;;;;34.40;25.40;;;;;;;5.34;77.44;101867.52;109718;1271;23696;-76
2023/02/12 00:55:52;;;;;;;34.30;25.10;;;;;;;5.33;77.40;101868.71;109538;1270;23730;-76
2023/02/12 00:58:45;;;;;;;39.70;27.80;;;;;;;5.31;77.44;101871.29;109679;1267;21982;-77
2023/02/12 01:01:30;;;;;;;33.30;23.20;;;;;;;5.29;77.48;101873.35;110070;1267;21974;-76
2023/02/12 01:04:04;;;;;;;32.80;23.00;;;;;;;5.29;77.26;101884.75;109755;1267;21975;-76
2023/02/12 01:06:35;;;;;;;;;;;;;;;5.29;77.23;101889.23;109823;1261;22317;-76
2023/02/12 01:09:05;;;;;;;41.30;27.30;;;;;;;5.20;77.32;101887.94;110547;1261;21966;-76
2023/02/12 01:11:43;;;;;;;43.00;29.30;;;;;;;5.21;77.45;101901.07;110424;1262;23033;-77
2023/02/12 01:14:18;;;;;;;42.70;28.30;;;;;;;5.20;77.44;101907.09;110403;1263;23074;-76
2023/02/12 01:16:53;;;;;;;32.90;24.60;;;;;;;5.21;77.36;101901.58;110303;1263;22194;-77
2023/02/12 01:19:28;;;;;;;34.50;22.10;;;;;;;5.20;77.40;101898.99;109512;1268;21997;-76
2023/02/12 01:22:00;;;;;;;31.80;21.80;;;;;;;5.20;77.53;101906.41;109614;1264;21973;-76
2023/02/12 01:24:36;;;;;;;36.40;20.20;;;;;;;5.21;77.50;101913.49;110211;1263;22005;-77
2023/02/12 01:27:08;;;;;;;32.80;19.30;;;;;;;5.21;77.54;101919.71;110148;1262;23693;-76
2023/02/12 01:29:43;;;;;;;;;;;;;;;5.22;77.44;101918.86;109686;1269;21973;-76
2023/02/12 01:32:25;;;;;;;32.40;19.30;;;;;;;5.15;77.73;101920.69;109796;1268;21967;-78
2023/02/12 01:35:16;;;;;;;29.60;18.20;;;;;;;5.14;77.70;101929.48;109352;1273;23800;-77
2023/02/12 01:37:57;;;;;;;39.40;20.20;;;;;;;5.17;77.71;101929.50;109531;1265;22022;-77
2023/02/12 01:40:36;;;;;;;32.10;19.00;;;;;;;5.19;77.77;101929.02;110276;1263;22720;-76
2023/02/12 01:43:12;;;;;;;32.00;19.70;;;;;;;5.23;77.70;101930.09;109686;1267;22739;-76
2023/02/12 01:45:52;;;;;;;28.00;18.20;;;;;;;5.22;77.57;101928.70;110053;1267;21991;-77
2023/02/12 01:48:32;;;;;;;32.10;22.10;;;;;;;5.23;77.51;101930.59;110461;1263;21967;-77
2023/02/12 01:51:20;;;;;;;35.20;22.80;;;;;;;5.21;77.31;101927.83;110579;1262;21968;-76
2023/02/12 01:54:03;;;;;;;34.70;26.20;;;;;;;5.21;77.32;101936.80;110450;1262;23610;-77
2023/02/12 01:56:48;;;;;;;35.50;25.40;;;;;;;5.19;77.35;101939.02;110527;1262;23043;-76
2023/02/12 01:59:28;;;;;;;35.00;23.50;;;;;;;5.17;77.38;101940.04;110547;1261;21973;-77
2023/02/12 02:02:13;;;;;;;;;;;;;;;;;;;;;
2023/02/12 02:05:01;;;;;;;40.50;23.30;;;;;;;5.11;77.15;101950.34;110386;1260;21983;-77
2023/02/12 02:07:35;;;;;;;40.30;25.00;;;;;;;5.07;77.26;101952.71;110904;1257;23134;-76
2023/02/12 02:10:10;;;;;;;42.20;24.60;;;;;;;5.06;77.20;101957.70;110448;1263;21991;-75
2023/02/12 02:15:32;;;;;;;40.80;24.50;;;;;;;4.98;77.22;101955.02;110428;1263;23607;-76
2023/02/12 02:18:21;;;;;;;;;;;;;;;4.97;77.19;101964.50;110449;1263;22228;-75
2023/02/12 02:21:48;;;;;;;39.20;24.30;;;;;;;4.86;77.36;101964.89;110433;1263;22076;-75
2023/02/12 02:25:03;;;;;;;37.60;22.60;;;;;;;4.78;77.30;101968.95;110408;1262;21990;-76
2023/02/12 02:28:19;;;;;;;35.80;24.70;;;;;;;4.70;77.27;101972.48;108954;1277;23090;-76
2023/02/12 02:30:58;;;;;;;37.50;24.50;;;;;;;4.65;77.40;101975.00;108500;1277;23924;-76
2023/02/12 02:33:49;;;;;;;38.50;25.50;;;;;;;4.64;77.23;101986.70;108526;1282;21994;-76
2023/02/12 02:36:35;;;;;;;42.40;24.30;;;;;;;4.64;77.19;101992.22;108869;1278;23644;-76
2023/02/12 02:40:04;;;;;;;39.60;19.90;;;;;;;4.56;77.05;101998.48;108866;1277;22098;-75
2023/02/12 02:43:05;;;;;;;38.20;18.70;;;;;;;4.43;76.76;101998.15;108880;1278;22012;-75
2023/02/12 02:45:58;;;;;;;36.80;18.60;;;;;;;4.30;76.84;102001.94;108537;1285;22086;-75
2023/02/12 02:48:45;;;;;;;34.20;18.60;;;;;;;4.24;76.88;102007.52;108559;1279;24333;-76
2023/02/12 02:51:33;;;;;;;31.70;17.90;;;;;;;4.19;76.86;102015.20;108799;1279;23647;-76
2023/02/12 02:54:41;;;;;;;35.50;18.00;;;;;;;4.11;76.70;102023.36;108282;1285;22100;-74
2023/02/12 02:57:29;;;;;;;30.90;19.40;;;;;;;4.03;76.78;102020.83;108236;1288;23019;-76
2023/02/12 03:00:09;;;;;;;34.90;17.40;;;;;;;3.98;76.65;102014.02;107834;1293;23743;-76
2023/02/12 03:02:43;;;;;;;26.80;16.30;;;;;;;3.93;76.39;102016.35;107615;1293;22951;-75
2023/02/12 03:05:34;;;;;;;22.00;14.70;;;;;;;3.85;76.23;102022.23;108373;1280;22065;-76
2023/02/12 03:08:23;;;;;;;29.30;14.80;;;;;;;3.77;76.16;102029.52;108641;1280;22012;-76
2023/02/12 03:11:04;;;;;;;22.60;13.10;;;;;;;3.67;76.18;102034.35;108891;1280;22000;-76
2023/02/12 03:13:55;;;;;;;22.40;11.70;;;;;;;3.61;76.12;102038.88;108969;1266;23119;-76
2023/02/12 03:16:58;;;;;;;24.90;11.50;;;;;;;3.55;76.25;102046.52;108891;1278;23695;-76
2023/02/12 03:19:44;;;;;;;26.20;12.90;;;;;;;3.48;76.15;102047.61;109295;1273;21983;-75
2023/02/12 03:22:28;;;;;;;25.10;12.80;;;;;;;3.44;76.24;102050.11;109545;1264;22862;-75
2023/02/12 03:25:24;;;;;;;24.20;12.90;;;;;;;3.44;76.09;102055.80;106751;1263;4835557;-76
2023/02/12 03:28:14;;;;;;;25.40;13.50;;;;;;;3.45;76.19;102061.99;110448;1263;21972;-76
2023/02/12 03:30:52;;;;;;;23.50;14.20;;;;;;;3.44;76.07;102066.30;110424;1257;23077;-76
2023/02/12 03:33:56;;;;;;;20.00;13.50;;;;;;;3.43;75.99;102075.92;110890;1257;22036;-76
2023/02/12 03:36:51;;;;;;;27.80;14.30;;;;;;;3.41;75.85;102080.69;111051;1257;21995;-76
2023/02/12 03:40:13;;;;;;;22.80;13.50;;;;;;;3.37;75.71;102085.43;110829;1257;22032;-77
2023/02/12 03:42:54;;;;;;;30.10;16.90;;;;;;;3.31;75.65;102096.84;110212;1264;24424;-76
2023/02/12 03:46:15;;;;;;;27.10;16.90;;;;;;;3.27;75.57;102102.61;109693;1270;22005;-76
2023/02/12 03:48:55;;;;;;;36.50;17.80;;;;;;;3.20;75.39;102102.98;109962;1269;21980;-76
2023/02/12 03:51:33;;;;;;;29.50;14.30;;;;;;;3.17;75.35;102113.42;109761;1268;22002;-75
2023/02/12 03:54:08;;;;;;;27.70;13.50;;;;;;;3.13;75.33;102117.63;110037;1270;22136;-76
2023/02/12 03:56:48;;;;;;;15.60;10.00;;;;;;;3.13;75.32;102121.77;109669;1265;23592;-77
2023/02/12 03:59:21;;;;;;;16.00;9.80;;;;;;;3.14;75.31;102125.06;109967;1269;23775;-75
2023/02/12 04:01:54;;;;;;;13.50;8.70;;;;;;;3.18;75.35;102132.69;109765;1270;22036;-75
2023/02/12 04:04:29;;;;;;;18.50;10.40;;;;;;;3.21;75.24;102137.59;110201;1264;22995;-77
2023/02/12 04:07:00;;;;;;;20.10;9.60;;;;;;;3.23;75.17;102138.66;110127;1259;22240;-76
2023/02/12 04:09:34;;;;;;;19.70;10.40;;;;;;;3.26;75.04;102139.91;110385;1263;21986;-77
2023/02/12 04:12:49;;;;;;;18.30;9.80;;;;;;;3.27;74.93;102143.73;110384;1264;22103;-75
2023/02/12 04:15:36;;;;;;;16.20;9.60;;;;;;;3.24;74.86;102147.11;110360;1264;21989;-75
2023/02/12 04:18:19;;;;;;;16.40;10.30;;;;;;;3.26;74.73;102156.27;110173;1264;23699;-76
2023/02/12 04:20:53;;;;;;;;;;;;;;;3.29;74.66;102161.86;110793;1258;21934;-78
2023/02/12 04:23:43;;;;;;;25.20;13.00;;;;;;;3.26;74.95;102161.45;111025;1258;21960;-77
2023/02/12 04:26:37;;;;;;;19.20;12.00;;;;;;;3.29;74.79;102164.95;110348;1262;23058;-78
2023/02/12 04:29:41;;;;;;;23.50;12.90;;;;;;;3.31;74.46;102170.15;110551;1265;21977;-79
2023/02/12 04:32:21;;;;;;;18.80;11.30;;;;;;;3.30;74.29;102175.98;110266;1264;21970;-77
2023/02/12 04:35:28;;;;;;;21.00;13.70;;;;;;;3.30;74.25;102181.99;110440;1264;21970;-78
2023/02/12 04:38:25;;;;;;;23.60;13.20;;;;;;;3.29;74.20;102181.48;110418;1265;23039;-78
2023/02/12 04:41:09;;;;;;;21.40;13.90;;;;;;;3.29;74.06;102183.35;110085;1265;23699;-78
2023/02/12 04:43:42;;;;;;;24.00;14.60;;;;;;;3.31;74.01;102186.33;109692;1265;22085;-78
2023/02/12 04:46:13;;;;;;;24.20;14.40;;;;;;;3.35;74.03;102192.95;110372;1264;22040;-78
2023/02/12 04:48:58;;;;;;;25.50;15.30;;;;;;;3.39;73.92;102188.20;110612;1265;21855;-79
2023/02/12 04:51:34;;;;;;;20.80;12.70;;;;;;;3.41;73.94;102186.19;110017;1265;22007;-77
2023/02/12 04:54:24;;;;;;;14.40;10.30;;;;;;;3.45;73.80;102186.79;110413;1263;23789;-80
2023/02/12 04:57:07;;;;;;;;;;;;;;;;;;;;;
2023/02/12 04:59:40;;;;;;;18.50;11.70;;;;;;;3.34;73.68;102191.04;110374;1265;22024;-79
2023/02/12 05:02:14;;;;;;;17.60;11.40;;;;;;;3.29;73.49;102191.80;110716;1257;21960;-78
2023/02/12 05:04:54;;;;;;;19.70;14.40;;;;;;;3.28;73.52;102199.70;110831;1257;23081;-78
2023/02/12 05:07:30;;;;;;;17.00;11.70;;;;;;;3.28;73.38;102204.00;110242;1264;22002;-78
2023/02/12 05:10:12;;;;;;;16.30;10.90;;;;;;;3.26;73.21;102209.11;109964;1263;22570;-78
2023/02/12 05:12:45;;;;;;;17.80;11.60;;;;;;;3.24;73.22;102211.98;110098;1265;22839;-79
2023/02/12 05:15:17;;;;;;;23.50;14.40;;;;;;;3.25;73.11;102213.39;110027;1265;23712;-78
2023/02/12 05:17:48;;;;;;;18.80;12.70;;;;;;;3.25;73.00;102210.11;110227;1265;21984;-76
2023/02/12 05:20:23;;;;;;;20.20;13.10;;;;;;;3.22;72.80;102210.57;110433;1264;23105;-77
2023/02/12 05:22:58;;;;;;;20.00;12.60;;;;;;;3.23;72.68;102214.02;110193;1265;21976;-77
2023/02/12 05:25:31;;;;;;;17.50;12.80;;;;;;;3.25;72.74;102215.79;110595;1258;21997;-78
2023/02/12 05:28:02;;;;;;;15.80;10.70;;;;;;;3.26;72.55;102218.05;110757;1257;21979;-78
2023/02/12 05:30:31;;;;;;;17.00;11.50;;;;;;;3.26;72.45;102220.46;110999;1257;21966;-77
2023/02/12 05:33:02;;;;;;;19.10;10.60;;;;;;;3.26;72.24;102227.19;110795;1257;23027;-78
2023/02/12 05:35:34;;;;;;;17.70;12.30;;;;;;;3.26;72.17;102233.54;110746;1257;23033;-77
2023/02/12 05:38:04;;;;;;;14.70;10.50;;;;;;;3.26;72.13;102237.51;110926;1257;23739;-76
2023/02/12 05:40:39;;;;;;;14.40;11.20;;;;;;;3.27;72.12;102239.59;111102;1257;21964;-78
2023/02/12 05:43:10;;;;;;;14.10;10.30;;;;;;;3.28;72.03;102245.28;110449;1263;22035;-77
2023/02/12 05:45:46;;;;;;;14.60;9.50;;;;;;;3.29;71.97;102252.55;110165;1263;21979;-79
2023/02/12 05:48:17;;;;;;;12.20;9.40;;;;;;;3.28;71.87;102261.65;109740;1269;23034;-78
2023/02/12 05:50:50;;;;;;;20.00;11.60;;;;;;;3.28;71.74;102264.90;109642;1269;22978;-79
2023/02/12 05:53:22;;;;;;;14.80;11.50;;;;;;;3.28;71.67;102268.35;109630;1269;23726;-78
2023/02/12 05:55:53;;;;;;;21.20;14.40;;;;;;;3.28;71.58;102270.60;109531;1269;22411;-78
2023/02/12 05:58:24;;;;;;;18.80;14.60;;;;;;;3.26;71.41;102275.71;109839;1267;21989;-78
2023/02/12 06:00:56;;;;;;;22.90;14.00;;;;;;;3.23;71.41;102275.79;109906;1265;22032;-77
2023/02/12 06:03:27;;;;;;;21.60;15.50;;;;;;;3.17;71.29;102277.89;110108;1265;21989;-77
2023/02/12 06:06:01;;;;;;;25.20;18.10;;;;;;;3.06;70.91;102279.02;110272;1258;23605;-78
2023/02/12 06:08:40;;;;;;;30.50;18.90;;;;;;;2.95;70.98;102288.39;110767;1258;21971;-78
2023/02/12 06:11:20;;;;;;;20.00;15.40;;;;;;;2.90;71.01;102301.67;111031;1258;24297;-78
2023/02/12 06:13:52;;;;;;;24.00;15.50;;;;;;;2.84;71.01;102305.30;110323;1262;22014;-78
2023/02/12 06:16:30;;;;;;;23.60;14.40;;;;;;;2.80;71.07;102310.38;110622;1260;22001;-76
2023/02/12 06:19:04;;;;;;;21.20;11.60;;;;;;;2.81;71.23;102318.81;110470;1259;21979;-77
2023/02/12 06:21:34;;;;;;;13.40;11.40;;;;;;;2.81;71.27;102323.27;110006;1266;24308;-76
2023/02/12 06:24:05;;;;;;;14.10;11.50;;;;;;;2.80;71.16;102324.63;109750;1262;21975;-75
2023/02/12 06:26:35;;;;;;;16.80;10.10;;;;;;;2.77;70.98;102331.61;110001;1265;24300;-75
2023/02/12 06:29:05;;;;;;;14.80;10.50;;;;;;;2.76;71.01;102334.84;109396;1265;22021;-76
2023/02/12 06:31:36;;;;;;;18.20;11.60;;;;;;;2.77;71.03;102340.88;108941;1275;21984;-77
2023/02/12 06:34:11;;;;;;;16.80;9.40;;;;;;;2.77;70.96;102347.08;109131;1274;21986;-77
2023/02/12 06:36:46;;;;;;;16.00;13.00;;;;;;;2.77;70.86;102354.47;109024;1278;23805;-76
2023/02/12 06:39:23;;;;;;;15.60;10.00;;;;;;;2.78;70.92;102354.99;108920;1277;21997;-77
2023/02/12 06:41:53;;;;;;;12.50;8.90;;;;;;;2.80;70.97;102361.59;108874;1268;22329;-77
2023/02/12 06:44:27;;;;;;;15.80;7.50;;;;;;;2.83;70.93;102367.88;108903;1278;22455;-78
2023/02/12 06:47:10;;;;;;;9.70;7.50;;;;;;;2.84;70.82;102371.15;109307;1269;21977;-76
2023/02/12 06:49:43;;;;;;;15.90;10.00;;;;;;;2.81;70.73;102370.73;110086;1262;22969;-76
2023/02/12 06:52:25;;;;;;;13.70;10.00;;;;;;;2.81;70.53;102373.14;110541;1263;23595;-76
2023/02/12 06:54:56;;;;;;;14.10;10.20;;;;;;;2.78;70.57;102378.56;110270;1263;21988;-77
2023/02/12 06:57:27;;;;;;;19.20;11.80;;;;;;;2.79;70.68;102384.45;109750;1268;23751;-77
2023/02/12 07:00:14;;;;;;;70.30;33.10;;;;;;;2.80;70.56;102381.89;109410;1271;22004;-76
2023/02/12 07:02:56;;;;;;;52.10;27.80;;;;;;;2.80;70.59;102386.18;109726;1268;24373;-77
2023/02/12 07:05:36;;;;;;;32.00;20.20;;;;;;;2.82;70.60;102390.20;109803;1268;22575;-77
2023/02/12 07:08:20;;;;;;;17.50;11.10;;;;;;;2.87;70.61;102392.37;109654;1268;21974;-78
2023/02/12 07:10:56;;;;;;;21.30;15.70;;;;;;;2.88;70.48;102394.83;110029;1268;22048;-77
2023/02/12 07:13:38;;;;;;;23.40;15.50;;;;;;;2.91;70.47;102404.37;109542;1268;23743;-77
2023/02/12 07:16:14;;;;;;;21.80;13.60;;;;;;;2.97;70.43;102400.73;109774;1264;21980;-77
2023/02/12 07:18:45;;;;;;;20.10;14.00;;;;;;;3.04;70.43;102397.84;110347;1258;22095;-76
2023/02/12 07:21:25;;;;;;;19.90;14.00;;;;;;;3.10;70.19;102397.63;110910;1258;22737;-77
2023/02/12 07:24:04;;;;;;;16.80;9.60;;;;;;;3.12;70.09;102399.41;110833;1257;22135;-79
2023/02/12 07:26:38;;;;;;;31.40;15.80;;;;;;;3.09;69.83;102399.16;110910;1258;21973;-79
2023/02/12 07:29:20;;;;;;;24.00;17.30;;;;;;;3.06;69.75;102398.73;110948;1258;23020;-75
2023/02/12 07:32:15;;;;;;;10.50;6.30;;;;;;;3.05;69.98;102403.87;111014;1258;21952;-77
2023/02/12 07:34:53;;;;;;;8.40;6.90;;;;;;;3.10;69.80;102411.06;111064;1258;21970;-77
2023/02/12 07:37:59;;;;;;;18.00;9.10;;;;;;;3.10;69.67;102412.44;110736;1263;21984;-78
2023/02/12 07:40:44;;;;;;;13.00;8.90;;;;;;;3.11;69.76;102412.80;110239;1263;21994;-77
2023/02/12 07:43:19;;;;;;;14.50;10.40;;;;;;;3.16;69.90;102404.84;109929;1267;22194;-78
2023/02/12 07:46:17;;;;;;;12.40;9.30;;;;;;;3.22;69.44;102412.05;110246;1267;21900;-77
2023/02/12 07:48:59;;;;;;;16.40;11.30;;;;;;;3.19;69.27;102406.98;110189;1267;21987;-78
2023/02/12 07:51:43;;;;;;;12.70;9.70;;;;;;;3.20;69.39;102404.59;110214;1266;21974;-77
2023/02/12 07:54:18;;;;;;;12.70;9.30;;;;;;;3.23;69.28;102406.23;110147;1266;22942;-77
2023/02/12 07:57:07;;;;;;;;;;;;;;;;;;;;;
2023/02/12 07:59:41;;;;;;;18.10;12.40;;;;;;;3.22;68.89;102404.15;110781;1262;22987;-77
2023/02/12 08:02:53;;;;;;;17.70;13.80;;;;;;;3.23;68.94;102398.30;111001;1257;23017;-78
2023/02/12 08:05:28;;;;;;;14.50;11.10;;;;;;;3.27;69.07;102402.03;111023;1258;21974;-77
2023/02/12 08:08:19;;;;;;;18.80;13.90;;;;;;;3.32;68.90;102408.70;110934;1258;21975;-76
2023/02/12 08:10:55;;;;;;;18.80;12.60;;;;;;;3.37;68.89;102406.23;111060;1258;22061;-77
2023/02/12 08:13:25;;;;;;;22.80;15.90;;;;;;;3.44;68.71;102408.66;111110;1258;22276;-78
2023/02/12 08:16:20;;;;;;;20.90;13.60;;;;;;;3.51;68.62;102408.46;111144;1257;21962;-80
2023/02/12 08:18:59;;;;;;;25.10;15.80;;;;;;;3.63;68.72;102415.64;111139;1258;21964;-79
2023/02/12 08:22:06;;;;;;;;;;;;;;;;;;;;;
2023/02/12 08:24:37;;;;;;;18.30;12.40;;;;;;;3.72;68.04;102422.05;110787;1261;22139;-79
2023/02/12 08:27:26;;;;;;;26.40;16.30;;;;;;;3.83;68.33;102425.59;110822;1255;21977;-74
2023/02/12 08:29:59;;;;;;;31.20;19.50;;;;;;;4.09;68.73;102422.20;110756;1261;22457;-81
2023/02/12 08:32:41;;;;;;;42.10;24.30;;;;;;;4.24;67.78;102422.18;111108;1261;23567;-87
2023/02/12 08:35:22;;;;;;;25.90;19.70;;;;;;;4.28;67.13;102428.13;111228;1261;22980;-88
2023/02/12 08:38:03;;;;;;;21.30;17.00;;;;;;;4.35;67.08;102433.96;111343;1261;21993;-82
2023/02/12 08:40:44;;;;;;;23.90;18.30;;;;;;;4.48;67.16;102440.98;111220;1261;21983;-86
2023/02/12 08:43:53;;;;;;;;;;;;;;;;;;;;;
2023/02/12 08:46:36;;;;;;;24.80;17.00;;;;;;;4.63;66.55;102432.48;110903;1262;22303;-76
2023/02/12 08:49:31;;;;;;;18.70;14.60;;;;;;;4.73;66.30;102429.05;110351;1263;23597;-78
2023/02/12 08:52:08;;;;;;;24.50;20.90;;;;;;;4.79;65.92;102427.45;110354;1261;21985;-79
2023/02/12 08:54:39;;;;;;;22.80;17.80;;;;;;;4.91;66.01;102428.35;111010;1261;23747;-77
2023/02/12 08:57:19;;;;;;;26.20;19.80;;;;;;;4.98;65.39;102428.48;110693;1261;21974;-80
2023/02/12 09:00:26;;;;;;;47.90;37.70;;;;;;;5.06;65.42;102433.64;110506;1264;21987;-75
2023/02/12 09:02:56;;;;;;;44.90;33.30;;;;;;;5.18;64.90;102437.83;110570;1253;23122;-77
2023/02/12 09:05:30;;;;;;;21.00;18.30;;;;;;;5.28;65.24;102441.11;110458;1263;21988;-77
2023/02/12 09:08:03;;;;;;;47.70;31.70;;;;;;;5.56;65.23;102450.04;110392;1263;22206;-76
2023/02/12 09:10:41;;;;;;;31.40;21.70;;;;;;;5.60;63.79;102452.52;110398;1263;22027;-77
2023/02/12 09:13:15;;;;;;;25.60;16.00;;;;;;;5.53;63.45;102456.39;110600;1263;21975;-76
2023/02/12 09:15:54;;;;;;;24.80;17.50;;;;;;;5.53;63.50;102461.55;110460;1263;21982;-78
2023/02/12 09:18:30;;;;;;;21.30;15.70;;;;;;;5.50;62.94;102459.60;110355;1263;23047;-76
2023/02/12 09:21:15;;;;;;;19.50;14.10;;;;;;;5.43;62.94;102467.27;110611;1260;22014;-78
2023/02/12 09:23:55;;;;;;;19.80;14.20;;;;;;;5.34;62.97;102468.67;110833;1256;23037;-79
2023/02/12 09:27:03;;;;;;;27.70;17.20;;;;;;;5.34;63.04;102468.83;111440;1260;21986;-78
2023/02/12 09:29:43;;;;;;;18.50;14.00;;;;;;;5.40;63.16;102471.03;110423;1261;21970;-77
2023/02/12 09:32:16;;;;;;;19.00;15.30;;;;;;;5.43;62.86;102470.56;110859;1256;21968;-76
2023/02/12 09:34:52;;;;;;;32.60;29.30;;;;;;;5.50;62.69;102475.15;110844;1257;21965;-76
2023/02/12 09:37:27;;;;;;;21.10;15.90;;;;;;;5.57;62.82;102475.98;111203;1255;22226;-78
2023/02/12 09:40:05;;;;;;;20.60;15.40;;;;;;;5.81;63.39;102476.52;110654;1260;21974;-78
2023/02/12 09:43:31;;;;;;;18.10;14.50;;;;;;;6.06;63.07;102468.98;110831;1259;21985;-77
2023/02/12 09:46:28;;;;;;;23.40;15.80;;;;;;;6.26;62.21;102474.29;110641;1265;23607;-78
2023/02/12 09:50:06;;;;;;;29.50;18.80;;;;;;;6.31;61.53;102478.17;110571;1261;23807;-78
2023/02/12 09:52:48;;;;;;;20.40;15.30;;;;;;;6.32;61.20;102476.80;110478;1265;21976;-78
2023/02/12 09:55:28;;;;;;;22.70;17.60;;;;;;;6.37;61.29;102472.38;109530;1271;22021;-77
2023/02/12 09:58:16;;;;;;;23.90;18.10;;;;;;;6.51;61.57;102472.22;109446;1272;22002;-78
2023/02/12 10:01:20;;;;;;;25.90;18.60;;;;;;;6.82;61.77;102477.95;109389;1272;22054;-78
2023/02/12 10:04:00;;;;;;;26.30;20.80;;;;;;;7.06;61.35;102475.11;109859;1266;22108;-79
2023/02/12 10:07:42;;;;;;;27.60;22.40;;;;;;;7.21;60.63;102473.35;110243;1267;21982;-77
2023/02/12 10:11:13;;;;;;;26.60;21.50;;;;;;;7.32;60.25;102472.42;109640;1271;22201;-78
2023/02/12 10:14:36;;;;;;;24.60;18.90;;;;;;;7.63;60.30;102473.91;109283;1271;22111;-78
2023/02/12 10:17:40;;;;;;;28.00;22.10;;;;;;;7.78;59.09;102478.54;109835;1271;21873;-78
2023/02/12 10:20:50;;;;;;;30.80;25.70;;;;;;;7.79;58.60;102481.49;109398;1271;22489;-78
2023/02/12 10:23:48;;;;;;;27.40;24.50;;;;;;;7.88;58.41;102476.36;109446;1273;22028;-79
2023/02/12 10:26:48;;;;;;;30.70;23.60;;;;;;;7.95;58.35;102473.29;109366;1274;21992;-77
2023/02/12 10:29:47;;;;;;;;;;;;;;;;;;;;;
2023/02/12 10:32:36;;;;;;;26.70;21.90;;;;;;;8.05;57.58;102471.09;108817;1276;22159;-78
2023/02/12 10:35:21;;;;;;;23.20;20.40;;;;;;;8.03;57.50;102465.89;108935;1279;22085;-79
2023/02/12 10:38:12;;;;;;;31.90;26.90;;;;;;;7.95;57.10;102456.99;108878;1280;22331;-79
2023/02/12 10:40:45;;;;;;;35.10;31.30;;;;;;;7.94;57.52;102458.90;108836;1280;22309;-76
2023/02/12 10:43:16;;;;;;;49.50;37.70;;;;;;;8.09;57.65;102466.61;109041;1278;22136;-78
2023/02/12 10:45:52;;;;;;;33.50;29.80;;;;;;;8.11;57.18;102466.98;108796;1277;23686;-77
2023/02/12 10:48:57;;;;;;;31.00;24.40;;;;;;;8.08;57.10;102463.48;109529;1265;23347;-79
2023/02/12 10:52:30;;;;;;;25.90;19.50;;;;;;;8.04;56.98;102465.20;110304;1265;22733;-77
2023/02/12 10:55:26;;;;;;;31.40;25.30;;;;;;;8.13;57.53;102469.95;110709;1263;23031;-80
2023/02/12 10:58:03;;;;;;;24.60;20.30;;;;;;;8.28;57.16;102463.27;111190;1258;23734;-78
2023/02/12 11:00:37;;;;;;;19.40;15.10;;;;;;;8.35;56.52;102458.62;111206;1257;22227;-78
2023/02/12 11:03:10;;;;;;;19.50;13.70;;;;;;;8.28;56.02;102461.34;111169;1258;23081;-77
2023/02/12 11:05:52;;;;;;;20.90;14.60;;;;;;;8.15;55.65;102460.42;111412;1257;22990;-81
2023/02/12 11:08:44;;;;;;;23.90;14.60;;;;;;;8.03;55.99;102462.08;111305;1254;22183;-78
2023/02/12 11:11:38;;;;;;;21.40;15.00;;;;;;;8.00;56.25;102453.91;111097;1257;21969;-83
2023/02/12 11:14:22;;;;;;;18.70;12.60;;;;;;;8.21;57.10;102454.39;111020;1257;21966;-78
2023/02/12 11:17:41;;;;;;;21.00;13.90;;;;;;;8.64;57.20;102458.94;110895;1257;23799;-79
2023/02/12 11:20:21;;;;;;;23.40;14.90;;;;;;;8.90;56.36;102460.08;110340;1264;23675;-81
2023/02/12 11:23:08;;;;;;;32.20;25.00;;;;;;;8.96;55.55;102453.16;110650;1264;22879;-78
2023/02/12 11:26:19;;;;;;;32.60;28.40;;;;;;;8.99;55.51;102451.25;111065;1264;22457;-78
2023/02/12 11:29:23;;;;;;;31.40;23.80;;;;;;;8.87;54.80;102458.34;110794;1264;22008;-77
2023/02/12 11:32:16;;;;;;;35.40;22.90;;;;;;;8.64;54.92;102460.68;110475;1264;22463;-78
2023/02/12 11:35:34;;;;;;;29.00;18.20;;;;;;;8.44;55.00;102452.27;109750;1268;23068;-78
2023/02/12 11:38:33;;;;;;;27.60;17.20;;;;;;;8.23;55.54;102445.03;109705;1269;23650;-78
2023/02/12 11:41:43;;;;;;;32.10;22.30;;;;;;;8.11;55.69;102443.74;110048;1269;22724;-79
2023/02/12 11:44:32;;;;;;;33.60;23.80;;;;;;;7.96;55.99;102446.08;109556;1271;22016;-82
2023/02/12 11:47:26;;;;;;;41.70;32.30;;;;;;;7.88;56.37;102446.20;109302;1278;23046;-79
2023/02/12 11:50:21;;;;;;;30.40;24.40;;;;;;;7.80;56.61;102448.23;108959;1277;23033;-78
2023/02/12 11:53:05;;;;;;;43.50;33.30;;;;;;;7.75;57.06;102446.80;109091;1274;23854;-78
2023/02/12 11:55:52;;;;;;;49.30;36.80;;;;;;;7.70;57.32;102439.66;109363;1274;22004;-78
2023/02/12 11:58:38;;;;;;;90.10;70.20;;;;;;;7.68;57.46;102440.84;109820;1267;21983;-79
2023/02/12 12:01:37;;;;;;;81.50;62.40;;;;;;;7.63;57.57;102443.77;109665;1272;21978;-77
2023/02/12 12:04:21;;;;;;;59.90;52.40;;;;;;;7.54;57.55;102439.88;109375;1272;23689;-78
2023/02/12 12:07:33;;;;;;;58.80;49.60;;;;;;;7.40;57.86;102444.27;110124;1267;22552;-79
2023/02/12 12:10:27;;;;;;;46.80;34.90;;;;;;;7.33;58.49;102442.48;110006;1266;21987;-78
2023/02/12 12:13:13;;;;;;;63.40;56.80;;;;;;;7.34;58.84;102441.63;110531;1262;23686;-80
2023/02/12 12:20:16;;;;;;;;;;;;;;;;;;;;;
2023/02/12 12:23:20;;;;;;;49.10;38.50;;;;;;;7.42;59.22;102451.05;110185;1269;23023;-78
2023/02/12 12:26:10;;;;;;;45.30;35.50;;;;;;;7.39;59.06;102452.91;109931;1265;22348;-79
2023/02/12 12:29:17;;;;;;;37.90;29.20;;;;;;;7.35;59.33;102448.37;109936;1265;23122;-79
2023/02/12 12:32:02;;;;;;;42.00;31.90;;;;;;;7.27;59.31;102447.43;110076;1264;21994;-79
2023/02/12 12:34:41;;;;;;;45.00;29.70;;;;;;;7.19;59.56;102448.05;110524;1265;22686;-79
2023/02/12 12:37:45;;;;;;;37.30;27.40;;;;;;;7.15;59.90;102448.71;110210;1265;21969;-79
2023/02/12 12:41:02;;;;;;;38.20;30.90;;;;;;;7.14;60.35;102442.98;110821;1261;23477;-78
2023/02/12 12:44:00;;;;;;;38.40;26.70;;;;;;;7.16;60.57;102440.92;110125;1268;22836;-79
2023/02/12 12:46:46;;;;;;;38.80;28.00;;;;;;;7.23;60.72;102433.88;110113;1267;22022;-85